Terminal Aerodrome Forecast
Issued by NWS Portland, ME

Home | Current Version | Previous Version | Text Only | Print | Product List | Glossary On
Versions: 1 2 3 4 5 6 7 8 9 10 11 12 13 14 15
000
FTUS41 KGYX 281723
TAFCON
TAF
KCON 281723Z 2818/0118 VRB03KT P6SM SKC
     FM010000 00000KT P6SM SCT250
     FM011200 00000KT P6SM OVC250
     FM011600 VRB03KT P6SM OVC100=

USA.gov is the U.S. government's official web portal to all federal, state and local government web resources and services.